Time;durP1;ratioP1;P1;durP2;ratioP2;P2;SDS_P1;SDS_P2;PMS_P1;PMS_P2;Temp;Humidity;BMP_temperature;BMP_pressure;BME280_temperature;BME280_humidity;BME280_pressure;Samples;Min_cycle;Max_cycle;Signal;HPM_P1;HPM_P2
2021/04/06 00:00:15;;;;;;;8.48;1.77;;;;;;;4.25;55.58;99013.31;5072275;28;20089;-73
2021/04/06 00:02:43;;;;;;;6.80;1.40;;;;;;;4.20;55.99;99030.34;5080164;28;20433;-74
2021/04/06 00:05:11;;;;;;;8.70;1.65;;;;;;;4.20;55.92;99021.41;5089942;28;20040;-73
2021/04/06 00:07:37;;;;;;;8.82;1.33;;;;;;;4.17;56.33;99022.78;5086647;28;20024;-73
2021/04/06 00:10:11;;;;;;;7.85;1.60;;;;;;;4.17;55.54;99019.25;5089396;28;20028;-72
2021/04/06 00:12:36;;;;;;;8.23;1.95;;;;;;;4.15;55.79;99013.34;5064279;28;20027;-72
2021/04/06 00:15:03;;;;;;;3.55;1.15;;;;;;;4.11;54.61;99010.38;5070423;28;20058;-73
2021/04/06 00:17:28;;;;;;;3.80;0.77;;;;;;;4.10;55.05;99010.69;5089805;28;20431;-72
2021/04/06 00:19:54;;;;;;;9.77;1.13;;;;;;;4.10;55.40;99026.84;5072897;28;20028;-73
2021/04/06 00:22:19;;;;;;;6.00;1.60;;;;;;;4.08;55.29;99021.72;5072874;28;20107;-72
2021/04/06 00:24:48;;;;;;;3.35;1.17;;;;;;;4.07;55.10;99036.31;5085819;28;20507;-73
2021/04/06 00:27:26;;;;;;;9.45;1.33;;;;;;;4.08;54.58;99019.03;5071994;28;20212;-73
2021/04/06 00:29:56;;;;;;;4.20;1.08;;;;;;;4.08;54.82;99027.13;5073915;28;20028;-73
2021/04/06 00:32:21;;;;;;;5.35;1.13;;;;;;;4.08;55.70;99021.72;5089530;28;20031;-73
2021/04/06 00:34:46;;;;;;;6.40;1.13;;;;;;;4.06;56.12;99026.56;5072722;28;20404;-72
2021/04/06 00:37:14;;;;;;;7.07;1.55;;;;;;;4.05;56.54;99024.16;5087322;28;20024;-73
2021/04/06 00:39:40;;;;;;;3.65;1.02;;;;;;;4.05;55.90;99011.50;5086359;28;20035;-73
2021/04/06 00:42:10;;;;;;;4.63;1.73;;;;;;;4.04;55.78;99017.16;5072724;28;20028;-75
2021/04/06 00:44:42;;;;;;;5.10;1.38;;;;;;;4.04;55.83;99019.84;5070180;28;20032;-73
2021/04/06 00:47:09;;;;;;;5.65;0.98;;;;;;;4.02;56.42;99016.63;5083868;28;20028;-74
2021/04/06 00:49:34;;;;;;;7.13;1.20;;;;;;;3.99;56.02;99013.41;5070881;28;20024;-73
2021/04/06 00:52:02;;;;;;;9.40;1.38;;;;;;;3.99;55.90;99016.09;5073558;28;20107;-73
2021/04/06 00:54:27;;;;;;;4.78;1.00;;;;;;;3.97;56.17;99018.25;5087406;28;20100;-74
2021/04/06 00:56:56;;;;;;;9.48;1.88;;;;;;;3.96;56.09;99029.31;5072789;28;20470;-74
2021/04/06 00:59:23;;;;;;;8.18;1.38;;;;;;;3.95;56.68;99035.78;5086933;28;20081;-74
2021/04/06 01:02:08;;;;;;;10.23;1.85;;;;;;;3.94;56.12;99024.19;5088136;28;20028;-73
2021/04/06 01:04:38;;;;;;;8.57;1.67;;;;;;;3.93;56.45;99025.28;5081879;28;20039;-73
2021/04/06 01:07:16;;;;;;;6.28;1.08;;;;;;;3.91;55.93;99021.25;5089971;28;20062;-73
2021/04/06 01:09:48;;;;;;;4.05;0.90;;;;;;;3.89;55.25;99026.09;5088406;28;20051;-73
2021/04/06 01:12:15;;;;;;;7.03;0.75;;;;;;;3.87;55.67;99039.81;5083127;28;20028;-73
2021/04/06 01:14:43;;;;;;;5.13;1.10;;;;;;;3.87;55.92;99036.34;5089116;28;20077;-74
2021/04/06 01:17:15;;;;;;;7.15;1.05;;;;;;;3.86;55.14;99024.75;5088875;28;20035;-74
2021/04/06 01:19:41;;;;;;;5.40;0.90;;;;;;;3.85;55.44;99036.63;5087113;28;20149;-73
2021/04/06 01:22:11;;;;;;;5.63;1.45;;;;;;;3.81;55.35;99027.44;5064900;28;20230;-72
2021/04/06 01:24:36;;;;;;;7.32;1.00;;;;;;;3.78;55.58;99028.78;5068598;28;20032;-73
2021/04/06 01:27:02;;;;;;;8.50;1.30;;;;;;;3.81;55.77;99029.34;5068460;28;20093;-72
2021/04/06 01:29:28;;;;;;;6.88;1.40;;;;;;;3.82;55.18;99031.78;5082244;28;20085;-73
2021/04/06 01:31:54;;;;;;;3.33;0.98;;;;;;;3.82;54.34;99020.16;5087385;28;20060;-73
2021/04/06 01:34:19;;;;;;;8.77;1.25;;;;;;;3.80;54.43;99031.22;5072053;28;20524;-73
2021/04/06 01:36:49;;;;;;;5.47;1.15;;;;;;;3.79;54.59;99048.47;5085698;28;20021;-72
2021/04/06 01:39:15;;;;;;;9.00;1.20;;;;;;;3.82;54.87;99039.03;5062797;28;20107;-72
2021/04/06 01:41:44;;;;;;;6.50;1.10;;;;;;;3.79;55.04;99032.28;5076723;28;20115;-72
2021/04/06 01:44:10;;;;;;;4.60;1.05;;;;;;;3.78;55.24;99030.69;5088793;28;20096;-73
2021/04/06 01:46:44;;;;;;;2.35;0.65;;;;;;;3.74;55.27;99029.63;5088532;28;20023;-72
2021/04/06 01:49:10;;;;;;;2.95;0.73;;;;;;;3.73;54.67;99028.00;5070306;28;20063;-72
2021/04/06 01:51:35;;;;;;;5.00;1.08;;;;;;;3.73;54.56;99054.94;5085853;28;20024;-73
2021/04/06 01:54:08;;;;;;;5.05;0.85;;;;;;;3.74;54.37;99041.22;5070765;28;20024;-73
2021/04/06 01:56:41;;;;;;;2.53;0.68;;;;;;;3.73;54.59;99034.19;5088839;28;20023;-74
2021/04/06 01:59:09;;;;;;;;;;;;;;;3.73;54.84;99038.78;5081790;28;20032;-73
2021/04/06 02:01:35;;;;;;;5.80;0.85;;;;;;;3.71;54.78;99076.78;5082057;28;19912;-73
2021/04/06 02:04:01;;;;;;;3.78;0.80;;;;;;;3.71;54.44;99040.94;5083597;28;20028;-73
2021/04/06 02:06:28;;;;;;;3.97;0.95;;;;;;;3.71;54.29;99046.31;5069331;28;20012;-73
2021/04/06 02:08:54;;;;;;;8.07;0.93;;;;;;;3.69;55.01;99043.91;5071759;28;20044;-74
2021/04/06 02:11:25;;;;;;;3.10;0.80;;;;;;;3.69;54.92;99041.22;5085387;28;20051;-72
2021/04/06 02:13:51;;;;;;;4.63;0.60;;;;;;;3.68;54.87;99036.09;5085294;28;20032;-73
2021/04/06 02:16:16;;;;;;;6.75;0.90;;;;;;;3.66;55.04;99038.25;5087622;28;20131;-72
2021/04/06 02:18:42;;;;;;;3.83;0.80;;;;;;;3.65;55.33;99025.84;5067381;28;20372;-72
2021/04/06 02:21:07;;;;;;;5.68;1.10;;;;;;;3.64;54.54;99025.06;5081435;28;20024;-72
2021/04/06 02:23:38;;;;;;;2.60;0.73;;;;;;;3.61;54.95;99024.78;5087574;28;20115;-72
2021/04/06 02:26:03;;;;;;;5.95;0.93;;;;;;;3.61;54.53;99033.69;5085950;28;20480;-72
2021/04/06 02:28:29;;;;;;;4.93;0.70;;;;;;;3.63;54.64;99028.84;5098686;28;20036;-72
2021/04/06 02:30:57;;;;;;;6.25;0.98;;;;;;;3.62;54.83;99024.50;5078406;28;20354;-72
2021/04/06 02:33:33;;;;;;;4.53;1.10;;;;;;;3.63;55.39;99033.38;5085980;28;20042;-72
2021/04/06 02:36:02;;;;;;;2.08;0.60;;;;;;;3.64;55.16;99032.34;5086880;28;20034;-72
2021/04/06 02:38:29;;;;;;;6.43;1.75;;;;;;;3.62;55.44;99029.09;5082595;28;20491;-72
2021/04/06 02:41:13;;;;;;;5.38;1.33;;;;;;;3.62;55.26;99035.28;5083653;28;20020;-72
2021/04/06 02:43:50;;;;;;;2.08;1.23;;;;;;;3.61;55.30;99046.34;5079615;28;20087;-72
2021/04/06 02:46:25;;;;;;;5.20;0.80;;;;;;;3.63;54.98;99057.66;5068128;28;20028;-72
2021/04/06 02:48:51;;;;;;;1.77;0.52;;;;;;;3.65;55.52;99047.41;5076712;28;20115;-73
2021/04/06 02:51:17;;;;;;;6.68;0.98;;;;;;;3.64;55.23;99040.41;5075498;28;20028;-73
2021/04/06 02:53:43;;;;;;;6.20;0.65;;;;;;;3.65;54.89;99042.03;5070855;28;20051;-73
2021/04/06 02:56:08;;;;;;;4.82;1.00;;;;;;;3.64;54.78;99051.19;5090992;28;20470;-73
2021/04/06 02:58:38;;;;;;;9.75;1.00;;;;;;;3.65;54.74;99042.03;5075767;28;20096;-73
2021/04/06 03:01:13;;;;;;;3.97;0.93;;;;;;;3.64;54.42;99059.28;5075616;28;20032;-73
2021/04/06 03:03:39;;;;;;;5.65;0.57;;;;;;;3.67;55.23;99045.25;5071468;28;20020;-73
2021/04/06 03:06:12;;;;;;;7.65;1.50;;;;;;;3.66;54.60;99044.47;5076002;28;20039;-73
2021/04/06 03:08:37;;;;;;;3.35;0.80;;;;;;;3.65;55.00;99047.41;5088048;28;20115;-73
2021/04/06 03:11:09;;;;;;;7.75;0.90;;;;;;;3.66;54.88;99059.81;5090274;28;20350;-72
2021/04/06 03:13:38;;;;;;;4.28;0.60;;;;;;;3.65;54.93;99042.81;5070369;28;20028;-73
2021/04/06 03:16:05;;;;;;;1.02;0.40;;;;;;;3.64;55.09;99046.59;5082556;28;20047;-72
2021/04/06 03:18:31;;;;;;;3.17;0.70;;;;;;;3.64;54.44;99067.38;5069589;28;20538;-73
2021/04/06 03:21:00;;;;;;;8.88;1.38;;;;;;;3.64;54.28;99076.25;5090220;28;20380;-72
2021/04/06 03:23:25;;;;;;;9.77;1.33;;;;;;;3.65;54.36;99075.16;5091684;28;20397;-72
2021/04/06 03:25:51;;;;;;;3.70;1.17;;;;;;;3.65;54.63;99064.38;5090709;28;20028;-72
2021/04/06 03:28:16;;;;;;;6.22;1.10;;;;;;;3.63;55.59;99049.56;5092593;28;20020;-73
2021/04/06 03:30:43;;;;;;;4.18;0.75;;;;;;;3.62;55.48;99056.03;5068977;28;20024;-73
2021/04/06 03:33:11;;;;;;;5.03;0.90;;;;;;;3.60;55.23;99055.50;5093957;28;20031;-73
2021/04/06 03:35:38;;;;;;;3.60;0.57;;;;;;;3.58;54.67;99063.06;5069902;28;20052;-73
2021/04/06 03:38:05;;;;;;;3.70;0.65;;;;;;;3.56;54.65;99052.53;5073694;28;20040;-73
2021/04/06 03:40:32;;;;;;;3.50;0.80;;;;;;;3.55;54.70;99059.81;5089330;28;20083;-73
2021/04/06 03:43:13;;;;;;;6.63;1.23;;;;;;;3.53;55.28;99045.81;5090168;28;20219;-73
2021/04/06 03:46:04;;;;;;;4.57;0.73;;;;;;;3.52;55.73;99051.47;5090275;28;20412;-73
2021/04/06 03:48:34;;;;;;;1.15;0.52;;;;;;;3.51;55.56;99061.41;5084139;28;20070;-73
2021/04/06 03:50:59;;;;;;;5.55;1.00;;;;;;;3.53;55.20;99053.88;5084213;28;20016;-73
2021/04/06 03:53:34;;;;;;;5.03;1.10;;;;;;;3.52;55.20;99054.97;5088090;28;20527;-73
2021/04/06 03:56:07;;;;;;;3.08;0.57;;;;;;;3.52;55.97;99064.94;5073132;28;20054;-72
2021/04/06 03:58:57;;;;;;;7.63;0.80;;;;;;;3.51;55.84;99053.34;5063289;28;20024;-73
2021/04/06 04:01:19;;;;;;;4.47;0.90;;;;;;;3.49;56.02;99046.59;5087529;28;20044;-72
2021/04/06 04:03:45;;;;;;;3.92;0.70;;;;;;;3.47;55.57;99043.41;5091087;28;20027;-73
2021/04/06 04:06:24;;;;;;;7.95;1.00;;;;;;;3.45;55.65;99049.03;5089049;28;20036;-73
2021/04/06 04:08:50;;;;;;;7.97;1.48;;;;;;;3.45;55.46;99046.34;5086624;28;20023;-73
2021/04/06 04:11:15;;;;;;;9.88;1.23;;;;;;;3.45;56.09;99048.22;5088694;28;20080;-73
2021/04/06 04:13:41;;;;;;;5.75;1.17;;;;;;;3.44;56.96;99052.81;5090172;28;20415;-73
2021/04/06 04:16:06;;;;;;;6.13;1.02;;;;;;;3.42;56.34;99044.19;5091318;28;20020;-72
2021/04/06 04:18:32;;;;;;;5.55;1.30;;;;;;;3.40;56.46;99046.34;5089810;28;20028;-73
2021/04/06 04:20:57;;;;;;;4.55;0.60;;;;;;;3.39;56.37;99055.50;5089728;28;20037;-73
2021/04/06 04:23:23;;;;;;;6.70;0.90;;;;;;;3.41;56.27;99036.38;5090766;28;20054;-73
2021/04/06 04:25:48;;;;;;;7.25;1.17;;;;;;;3.42;56.36;99041.50;5091129;28;20058;-73
2021/04/06 04:28:13;;;;;;;4.05;1.00;;;;;;;3.40;56.03;99040.97;5087285;28;20043;-72
2021/04/06 04:30:40;;;;;;;7.55;0.95;;;;;;;3.40;56.50;99043.66;5085089;28;20509;-73
2021/04/06 04:33:07;;;;;;;2.28;0.50;;;;;;;3.40;56.00;99045.53;5091524;28;20039;-73
2021/04/06 04:35:32;;;;;;;4.78;1.00;;;;;;;3.40;56.02;99035.56;5090597;28;20038;-71
2021/04/06 04:37:58;;;;;;;1.85;0.63;;;;;;;3.40;55.98;99032.88;5086140;28;20024;-72
2021/04/06 04:40:23;;;;;;;9.18;1.30;;;;;;;3.42;55.56;99046.88;5086215;28;20085;-72
2021/04/06 04:42:50;;;;;;;4.28;0.80;;;;;;;3.43;55.63;99043.09;5091027;28;20028;-72
2021/04/06 04:45:16;;;;;;;5.20;0.75;;;;;;;3.43;55.36;99066.53;5091393;28;20123;-72
2021/04/06 04:47:42;;;;;;;6.38;0.80;;;;;;;3.45;54.48;99045.53;5089138;28;20095;-72
2021/04/06 04:50:08;;;;;;;4.75;0.98;;;;;;;3.46;55.00;99047.94;5089768;28;20405;-72
2021/04/06 04:52:34;;;;;;;6.72;0.85;;;;;;;3.47;55.14;99057.66;5085746;28;20122;-72
2021/04/06 04:54:59;;;;;;;5.25;0.80;;;;;;;3.47;55.99;99051.47;5088689;28;20581;-72
2021/04/06 04:57:25;;;;;;;2.08;0.73;;;;;;;3.50;55.19;99057.13;5089983;28;20412;-72
2021/04/06 04:59:50;;;;;;;2.33;1.20;;;;;;;3.50;55.36;99054.44;5089815;28;20028;-72
2021/04/06 05:02:16;;;;;;;5.05;0.80;;;;;;;3.51;54.92;99058.72;5089417;28;20366;-74
2021/04/06 05:04:42;;;;;;;2.60;0.50;;;;;;;3.52;54.92;99076.53;5089440;28;20024;-72
2021/04/06 05:07:07;;;;;;;3.67;0.82;;;;;;;3.53;55.00;99048.50;5089821;28;20358;-72
2021/04/06 05:09:33;;;;;;;4.63;0.70;;;;;;;3.53;55.21;99056.59;5084665;28;20036;-72
2021/04/06 05:12:00;;;;;;;3.47;1.02;;;;;;;3.54;55.59;99052.00;5085835;28;20036;-73
2021/04/06 05:14:25;;;;;;;5.50;0.73;;;;;;;3.56;55.08;99045.25;5071170;28;20026;-73
2021/04/06 05:16:51;;;;;;;6.03;1.15;;;;;;;3.56;55.35;99058.72;5082359;28;20028;-72
2021/04/06 05:19:16;;;;;;;3.83;0.70;;;;;;;3.60;54.74;99068.97;5086763;28;20036;-73
2021/04/06 05:21:41;;;;;;;3.45;1.40;;;;;;;3.64;54.56;99056.59;5084763;28;20024;-72
2021/04/06 05:24:07;;;;;;;6.47;0.88;;;;;;;3.69;54.61;99056.59;5083205;28;20346;-73
2021/04/06 05:26:33;;;;;;;6.35;1.02;;;;;;;3.73;55.03;99063.84;5083785;28;20347;-73
2021/04/06 05:28:58;;;;;;;2.95;0.77;;;;;;;3.75;55.08;99052.81;5081832;28;20024;-72
2021/04/06 05:31:23;;;;;;;8.63;2.20;;;;;;;3.78;55.14;99063.03;5084685;28;20093;-73
2021/04/06 05:33:53;;;;;;;6.03;0.70;;;;;;;3.81;54.83;99067.88;5053391;28;20032;-73
2021/04/06 05:36:19;;;;;;;1.42;0.60;;;;;;;3.83;54.22;99068.41;5080586;28;20035;-73
2021/04/06 05:38:44;;;;;;;2.67;0.90;;;;;;;3.86;54.63;99075.97;5088507;28;20373;-73
2021/04/06 05:41:10;;;;;;;3.47;0.70;;;;;;;3.89;53.82;99072.72;5084121;28;20043;-73
2021/04/06 05:43:35;;;;;;;4.53;0.70;;;;;;;3.93;53.60;99065.72;5068546;28;20052;-73
2021/04/06 05:46:00;;;;;;;2.25;0.50;;;;;;;3.95;53.41;99065.44;5087766;28;20465;-72
2021/04/06 05:48:26;;;;;;;3.47;0.52;;;;;;;3.95;53.80;99074.31;5086684;28;20343;-72
2021/04/06 05:50:52;;;;;;;8.77;2.17;;;;;;;3.96;53.19;99070.56;5089541;28;20525;-78
2021/04/06 05:53:21;;;;;;;3.17;0.75;;;;;;;3.97;52.95;99074.88;5071793;28;20488;-76
2021/04/06 05:55:47;;;;;;;3.13;0.88;;;;;;;3.97;53.11;99074.06;5080800;28;20059;-76
2021/04/06 05:58:13;;;;;;;3.30;0.80;;;;;;;3.97;53.30;99071.38;5074916;28;20035;-77
2021/04/06 06:00:39;;;;;;;2.22;0.73;;;;;;;3.97;53.25;99077.56;5076207;28;20032;-76
2021/04/06 06:03:09;;;;;;;1.52;0.40;;;;;;;3.98;53.27;99078.34;5080733;28;20026;-76
2021/04/06 06:05:35;;;;;;;2.20;0.55;;;;;;;4.03;52.92;99096.44;5051782;28;20378;-76
2021/04/06 06:08:07;;;;;;;4.78;0.95;;;;;;;4.11;53.56;99088.59;5063207;28;20147;-76
2021/04/06 06:10:33;;;;;;;6.57;0.73;;;;;;;4.18;53.50;99096.41;5080856;28;20028;-76
2021/04/06 06:13:21;;;;;;;3.00;0.85;;;;;;;4.23;52.98;99091.00;5081296;28;20039;-76
2021/04/06 06:16:08;;;;;;;1.38;0.57;;;;;;;4.27;52.83;99094.75;5086370;28;20377;-77
2021/04/06 06:18:50;;;;;;;7.32;1.00;;;;;;;4.31;53.97;99095.00;5082839;28;20541;-76
2021/04/06 06:21:16;;;;;;;3.22;0.93;;;;;;;4.35;53.52;99115.78;5084688;28;20028;-77
2021/04/06 06:23:41;;;;;;;4.40;1.30;;;;;;;4.38;53.88;99096.34;5083938;28;20030;-76
2021/04/06 06:26:06;;;;;;;7.72;0.93;;;;;;;4.40;53.82;99091.50;5066620;28;20028;-75
2021/04/06 06:28:34;;;;;;;7.43;0.85;;;;;;;4.43;54.02;99107.13;5084175;28;20211;-76
2021/04/06 06:30:59;;;;;;;5.53;1.00;;;;;;;4.46;54.09;99105.78;5085489;28;20122;-76
2021/04/06 06:33:27;;;;;;;4.72;0.88;;;;;;;4.51;53.38;99096.84;5082157;28;20016;-76
2021/04/06 06:35:54;;;;;;;3.22;1.00;;;;;;;4.53;53.68;99105.47;5086454;28;20476;-79
2021/04/06 06:38:36;;;;;;;5.95;1.20;;;;;;;4.56;53.26;99121.13;5088748;28;20079;-78
2021/04/06 06:41:11;;;;;;;7.63;1.35;;;;;;;4.57;53.64;99109.25;5081110;28;20019;-79
2021/04/06 06:43:37;;;;;;;6.85;1.42;;;;;;;4.55;54.04;99112.19;5086636;28;20048;-79
2021/04/06 06:46:02;;;;;;;7.90;1.65;;;;;;;4.51;53.62;99115.75;5084446;28;20031;-79
2021/04/06 06:48:32;;;;;;;5.78;0.93;;;;;;;4.50;54.26;99112.25;5089984;28;20027;-79
2021/04/06 06:50:58;;;;;;;8.50;1.35;;;;;;;4.47;53.95;99101.19;5087505;28;20363;-79
2021/04/06 06:53:40;;;;;;;4.30;0.75;;;;;;;4.45;54.61;99115.75;5084335;28;20020;-79
2021/04/06 06:56:07;;;;;;;6.53;1.42;;;;;;;4.45;54.28;99115.75;5082036;28;20039;-80
2021/04/06 06:58:34;;;;;;;4.65;2.05;;;;;;;4.48;53.77;99105.50;5070866;28;20371;-79
2021/04/06 07:01:03;;;;;;;4.78;0.82;;;;;;;4.50;53.37;99108.72;5090777;28;20038;-80
2021/04/06 07:03:28;;;;;;;4.20;0.80;;;;;;;4.53;53.94;99118.97;5091253;28;20032;-81
2021/04/06 07:05:54;;;;;;;7.38;0.98;;;;;;;4.53;53.03;99110.84;5082255;28;20483;-80
2021/04/06 07:08:30;;;;;;;7.18;0.98;;;;;;;4.56;53.07;99104.94;5075541;28;20055;-78
2021/04/06 07:10:55;;;;;;;3.88;0.60;;;;;;;4.58;53.19;99108.16;5082400;28;20024;-77
2021/04/06 07:13:28;;;;;;;5.97;1.30;;;;;;;4.60;53.38;99111.38;5062098;28;20035;-80
2021/04/06 07:15:55;;;;;;;5.78;1.02;;;;;;;4.62;54.06;99103.84;5064945;28;20032;-79
2021/04/06 07:18:22;;;;;;;10.95;1.55;;;;;;;4.61;54.12;99118.38;5081013;28;20047;-77
2021/04/06 07:21:01;;;;;;;5.03;1.00;;;;;;;4.62;54.15;99111.94;5083525;28;20070;-77
2021/04/06 07:23:34;;;;;;;6.22;0.73;;;;;;;4.62;53.56;99095.72;5082549;28;20089;-77
2021/04/06 07:26:07;;;;;;;7.72;1.02;;;;;;;4.64;53.76;99096.28;5084362;28;20036;-80
2021/04/06 07:28:33;;;;;;;4.60;1.10;;;;;;;4.64;53.57;99107.06;5080799;28;20032;-80
2021/04/06 07:30:58;;;;;;;5.55;1.27;;;;;;;4.62;53.15;99095.72;5084581;28;20051;-78
2021/04/06 07:33:24;;;;;;;4.88;1.23;;;;;;;4.63;53.22;99111.63;5084944;28;20074;-78
2021/04/06 07:35:50;;;;;;;6.32;1.20;;;;;;;4.65;53.13;99109.47;5068515;28;20027;-80
2021/04/06 07:38:15;;;;;;;3.47;1.08;;;;;;;4.69;53.22;99125.91;5079145;28;20050;-78
2021/04/06 07:40:41;;;;;;;2.17;0.68;;;;;;;4.71;53.39;99109.47;5052885;28;20039;-79
2021/04/06 07:43:06;;;;;;;4.95;0.90;;;;;;;4.74;52.88;99103.50;5086321;28;20032;-79
2021/04/06 07:45:32;;;;;;;3.95;0.73;;;;;;;4.71;52.28;99104.88;5085437;28;20074;-79
2021/04/06 07:47:57;;;;;;;4.97;0.90;;;;;;;4.73;52.60;99110.81;5086521;28;20028;-78
2021/04/06 07:50:45;;;;;;;4.28;0.70;;;;;;;4.75;52.43;99103.25;5073072;28;20023;-78
2021/04/06 07:53:26;;;;;;;6.63;1.00;;;;;;;4.74;52.40;99115.09;5083181;28;20107;-72
2021/04/06 07:55:53;;;;;;;4.75;0.90;;;;;;;4.72;52.31;99117.28;5087765;28;20091;-73
2021/04/06 07:58:45;;;;;;;7.68;1.38;;;;;;;4.74;52.83;99111.59;5072672;28;20465;-73
2021/04/06 08:01:12;;;;;;;4.35;1.02;;;;;;;4.75;52.75;99105.94;5090578;28;20036;-73
2021/04/06 08:04:06;;;;;;;11.75;1.17;;;;;;;4.74;52.47;99106.19;5088241;28;20078;-73
2021/04/06 08:06:49;;;;;;;5.38;1.00;;;;;;;4.76;52.64;99104.84;5081542;28;20036;-73
2021/04/06 08:09:34;;;;;;;4.65;1.02;;;;;;;4.79;52.91;99101.59;5082449;28;20032;-73
2021/04/06 08:12:18;;;;;;;3.92;0.70;;;;;;;4.81;52.81;99115.63;5084152;28;20098;-74
2021/04/06 08:14:44;;;;;;;6.18;0.98;;;;;;;4.82;52.87;99135.31;5085114;28;20031;-74
2021/04/06 08:17:25;;;;;;;8.68;1.42;;;;;;;4.85;52.66;99124.78;5087458;28;20035;-73
2021/04/06 08:19:55;;;;;;;4.85;1.35;;;;;;;4.85;52.34;99118.56;5085961;28;20543;-73
2021/04/06 08:22:25;;;;;;;5.90;0.82;;;;;;;4.84;52.45;99117.78;5084646;28;20020;-72
2021/04/06 08:24:53;;;;;;;6.65;0.82;;;;;;;4.85;52.09;99119.38;5087442;28;20355;-73
2021/04/06 08:27:34;;;;;;;6.38;1.27;;;;;;;4.91;52.23;99122.88;5084300;28;20034;-72
2021/04/06 08:30:27;;;;;;;4.53;0.90;;;;;;;4.98;52.38;99127.97;5085143;28;20053;-73
2021/04/06 08:33:02;;;;;;;;;;;;;;;5.01;52.24;99133.63;5086274;28;20020;-73
2021/04/06 08:35:46;;;;;;;7.18;0.80;;;;;;;5.00;51.83;99123.09;5086318;28;19916;-73
2021/04/06 08:38:24;;;;;;;2.35;0.88;;;;;;;5.05;51.70;99139.28;5087615;28;20028;-73
2021/04/06 08:40:58;;;;;;;5.75;1.02;;;;;;;5.09;51.18;99129.53;5084442;28;20481;-73
2021/04/06 08:43:29;;;;;;;2.28;0.60;;;;;;;5.13;51.19;99130.59;5088997;28;20063;-73
2021/04/06 08:46:03;;;;;;;2.88;0.90;;;;;;;5.17;51.05;99131.66;5085686;28;20028;-74
2021/04/06 08:48:44;;;;;;;2.75;1.20;;;;;;;5.27;51.00;99131.59;5085486;28;20476;-73
2021/04/06 08:51:15;;;;;;;3.60;0.80;;;;;;;5.31;50.94;99132.63;5088386;28;20024;-73
2021/04/06 08:53:43;;;;;;;3.25;0.90;;;;;;;5.36;50.62;99131.00;5082023;28;20055;-79
2021/04/06 08:56:16;;;;;;;3.55;0.82;;;;;;;5.36;50.97;99131.81;5088180;28;20035;-81
2021/04/06 08:58:42;;;;;;;7.03;0.80;;;;;;;5.43;50.97;99136.88;5085562;28;20028;-82
2021/04/06 09:01:07;;;;;;;3.30;1.35;;;;;;;5.41;50.56;99137.19;5087894;28;20036;-82
2021/04/06 09:03:33;;;;;;;4.13;0.85;;;;;;;5.39;50.36;99138.56;5086737;28;20373;-82
2021/04/06 09:06:12;;;;;;;2.65;1.13;;;;;;;5.37;49.57;99140.72;5088769;28;20036;-83
2021/04/06 09:08:47;;;;;;;5.63;1.10;;;;;;;5.42;50.08;99140.69;5065808;28;20070;-82
2021/04/06 09:11:14;;;;;;;3.38;0.70;;;;;;;5.42;49.91;99143.41;5081155;28;20051;-82
2021/04/06 09:13:40;;;;;;;6.82;0.65;;;;;;;5.47;50.20;99159.59;5085940;28;20107;-83
2021/04/06 09:16:09;;;;;;;4.93;0.70;;;;;;;5.52;49.90;99154.16;5089248;28;20401;-80
2021/04/06 09:18:36;;;;;;;4.82;0.98;;;;;;;5.59;49.92;99160.03;5086798;28;20027;-93
2021/04/06 09:21:07;;;;;;;5.68;1.00;;;;;;;5.64;50.03;99154.59;5091821;28;20424;-81
2021/04/06 09:23:35;;;;;;;5.80;0.90;;;;;;;5.69;49.76;99148.34;5086083;28;20061;-74
2021/04/06 09:26:03;;;;;;;5.32;0.80;;;;;;;5.72;50.06;99164.81;5068484;28;20073;-75
2021/04/06 09:28:29;;;;;;;2.78;0.60;;;;;;;5.81;50.00;99169.63;5086276;28;20209;-74
2021/04/06 09:30:54;;;;;;;4.35;0.70;;;;;;;5.87;49.57;99172.00;5082285;28;20452;-75
2021/04/06 09:33:20;;;;;;;2.22;0.60;;;;;;;5.89;49.24;99158.19;5085564;28;20040;-76
2021/04/06 09:35:49;;;;;;;5.03;0.80;;;;;;;5.89;48.99;99158.19;5081923;28;20027;-75
2021/04/06 09:38:19;;;;;;;1.40;0.57;;;;;;;5.93;49.34;99164.66;5086027;28;20020;-75
2021/04/06 09:40:44;;;;;;;7.57;1.00;;;;;;;5.96;49.26;99161.41;5086083;28;20020;-76
2021/04/06 09:43:10;;;;;;;3.33;0.80;;;;;;;5.99;49.24;99169.75;5085008;28;20027;-75
2021/04/06 09:45:35;;;;;;;3.72;0.80;;;;;;;6.00;48.76;99176.81;5086756;28;20046;-75
2021/04/06 09:48:01;;;;;;;3.60;0.70;;;;;;;5.96;48.24;99181.16;5085641;28;20016;-75
2021/04/06 09:50:27;;;;;;;1.05;0.50;;;;;;;5.94;48.34;99182.53;5088846;28;20031;-75
2021/04/06 09:52:53;;;;;;;1.52;0.57;;;;;;;5.92;48.01;99168.44;5087866;28;20027;-75
2021/04/06 09:55:19;;;;;;;3.65;0.70;;;;;;;6.00;48.30;99173.28;5085259;28;20027;-75
2021/04/06 09:57:49;;;;;;;4.68;0.80;;;;;;;6.09;48.29;99170.78;5070888;28;20537;-76
2021/04/06 10:00:16;;;;;;;5.03;0.88;;;;;;;6.10;48.20;99165.09;5064294;28;20032;-74
2021/04/06 10:02:45;;;;;;;5.38;1.08;;;;;;;6.10;48.34;99178.59;5070150;28;20028;-75
2021/04/06 10:05:20;;;;;;;3.47;0.75;;;;;;;6.12;48.15;99175.63;5086620;28;20081;-76
2021/04/06 10:07:48;;;;;;;3.45;0.55;;;;;;;6.17;48.28;99181.81;5085568;28;20068;-79
2021/04/06 10:10:26;;;;;;;1.23;0.50;;;;;;;6.19;48.32;99185.03;5069928;28;20020;-80
2021/04/06 10:12:52;;;;;;;3.80;1.02;;;;;;;6.21;48.16;99176.63;5082932;28;20084;-89
2021/04/06 10:15:20;;;;;;;4.68;0.57;;;;;;;6.26;48.75;99179.28;5084410;28;20028;-87
2021/04/06 10:17:46;;;;;;;1.90;0.75;;;;;;;6.22;48.36;99184.47;5077226;28;20086;-86
2021/04/06 10:20:16;;;;;;;3.47;0.73;;;;;;;6.25;48.68;99176.84;5083531;28;20032;-83
2021/04/06 10:22:52;;;;;;;4.88;0.75;;;;;;;6.33;48.64;99178.94;5083948;28;20040;-83
2021/04/06 10:25:20;;;;;;;2.65;0.68;;;;;;;6.37;48.75;99185.41;5073930;28;20034;-89
2021/04/06 10:27:50;;;;;;;3.22;0.55;;;;;;;6.40;48.34;99176.72;5080039;28;20039;-80
2021/04/06 10:30:26;;;;;;;10.82;1.73;;;;;;;6.41;48.40;99175.63;5082353;28;20051;-81
2021/04/06 10:32:52;;;;;;;3.10;0.77;;;;;;;6.43;48.47;99181.56;5085301;28;20054;-81
2021/04/06 10:35:27;;;;;;;7.38;1.15;;;;;;;6.46;48.89;99170.16;5062025;28;20036;-78
2021/04/06 10:37:56;;;;;;;3.45;0.77;;;;;;;6.47;48.80;99163.66;5083662;28;20081;-80
2021/04/06 10:40:38;;;;;;;3.03;0.65;;;;;;;6.46;48.08;99197.22;5080688;28;20024;-80
2021/04/06 10:43:16;;;;;;;6.30;0.65;;;;;;;6.50;47.91;99178.53;5043049;28;20082;-80
2021/04/06 10:45:45;;;;;;;4.22;1.10;;;;;;;6.61;48.02;99191.66;5080291;28;20516;-79
2021/04/06 10:48:16;;;;;;;6.28;0.60;;;;;;;6.58;47.75;99200.38;5082895;28;20036;-79
2021/04/06 10:50:45;;;;;;;4.13;0.70;;;;;;;6.54;47.21;99185.78;5083284;28;20024;-80
2021/04/06 10:53:33;;;;;;;3.00;0.75;;;;;;;6.59;47.27;99182.22;5083473;28;20761;-81
2021/04/06 10:56:02;;;;;;;2.25;0.70;;;;;;;6.73;47.77;99182.34;5085034;28;20031;-81
2021/04/06 10:58:30;;;;;;;2.58;0.60;;;;;;;6.81;47.11;99189.81;5089064;28;20024;-83
2021/04/06 11:01:04;;;;;;;3.70;0.80;;;;;;;6.90;46.94;99182.69;5080811;28;20031;-80
2021/04/06 11:03:39;;;;;;;3.47;0.70;;;;;;;6.95;46.23;99190.75;5086856;28;20111;-79
2021/04/06 11:06:18;;;;;;;2.88;0.50;;;;;;;6.94;46.61;99201.88;5066864;28;20475;-80
2021/04/06 11:08:45;;;;;;;1.58;0.52;;;;;;;6.87;46.48;99184.09;5088547;28;20021;-81
2021/04/06 11:11:45;;;;;;;4.05;0.50;;;;;;;6.84;46.46;99189.25;5070896;28;20836;-79
2021/04/06 11:14:12;;;;;;;4.35;0.40;;;;;;;7.00;46.88;99190.69;5041859;28;20075;-81
2021/04/06 11:16:38;;;;;;;2.50;0.60;;;;;;;7.10;47.08;99203.31;5071787;28;20044;-81
2021/04/06 11:19:33;;;;;;;3.05;0.40;;;;;;;7.10;46.73;99182.44;5088166;28;20042;-81
2021/04/06 11:22:00;;;;;;;3.85;0.70;;;;;;;7.05;46.82;99196.06;5085436;28;20024;-81
2021/04/06 11:24:30;;;;;;;1.60;0.47;;;;;;;7.09;47.54;99186.25;5072565;28;20066;-80
2021/04/06 11:26:57;;;;;;;2.45;0.70;;;;;;;7.10;47.09;99190.56;5081184;28;20477;-81
2021/04/06 11:29:24;;;;;;;5.03;0.63;;;;;;;7.10;47.18;99190.56;5087917;28;20066;-81
2021/04/06 11:31:51;;;;;;;5.93;0.73;;;;;;;7.21;47.29;99209.41;5087723;28;20038;-80
2021/04/06 11:34:16;;;;;;;4.97;0.50;;;;;;;7.36;47.38;99206.50;5098160;28;20085;-88
2021/04/06 11:36:43;;;;;;;1.63;0.50;;;;;;;7.50;46.89;99234.53;5066892;28;20032;-86
2021/04/06 11:39:09;;;;;;;1.85;0.50;;;;;;;7.48;46.32;99217.75;5087269;28;20085;-76
2021/04/06 11:41:35;;;;;;;5.35;0.70;;;;;;;7.45;46.37;99221.03;5069288;28;20103;-76
2021/04/06 11:44:01;;;;;;;2.42;0.73;;;;;;;7.51;46.44;99228.00;5083780;28;20039;-76
2021/04/06 11:46:26;;;;;;;3.15;0.80;;;;;;;7.61;45.59;99212.69;5086564;28;20024;-75
2021/04/06 11:48:52;;;;;;;3.05;0.70;;;;;;;7.59;45.06;99213.00;5080859;28;20035;-76
2021/04/06 11:51:17;;;;;;;5.07;0.77;;;;;;;7.63;45.50;99211.28;5088691;28;20024;-75